Time;durP1;ratioP1;P1;durP2;ratioP2;P2;SDS_P1;SDS_P2;PMS_P1;PMS_P2;Temp;Humidity;BMP_temperature;BMP_pressure;BME280_temperature;BME280_humidity;BME280_pressure;Samples;Min_cycle;Max_cycle;Signal;HPM_P1;HPM_P2
2022/12/31 00:01:05;;;;;;;1.23;0.97;;;12.10;99.90;;;;;;5032909;28;20453;-72
2022/12/31 00:03:32;;;;;;;1.00;1.00;;;12.10;99.90;;;;;;5033154;28;20529;-72
2022/12/31 00:05:57;;;;;;;1.20;1.10;;;12.10;99.90;;;;;;5034264;28;20442;-72
2022/12/31 00:08:23;;;;;;;0.80;0.60;;;12.10;99.90;;;;;;5033383;28;20465;-71
2022/12/31 00:10:49;;;;;;;0.87;0.87;;;12.10;99.90;;;;;;5016608;28;20223;-72
2022/12/31 00:13:15;;;;;;;1.10;1.00;;;12.10;99.90;;;;;;5029668;28;20215;-72
2022/12/31 00:15:42;;;;;;;1.60;1.10;;;12.10;99.90;;;;;;5033194;28;20207;-73
2022/12/31 00:18:08;;;;;;;1.00;1.00;;;12.20;99.90;;;;;;5050125;28;20474;-71
2022/12/31 00:20:38;;;;;;;1.87;0.80;;;12.10;99.90;;;;;;5031716;28;20442;-72
2022/12/31 00:23:03;;;;;;;1.07;0.83;;;12.20;99.90;;;;;;5032291;28;20446;-71
2022/12/31 00:25:29;;;;;;;1.90;1.10;;;12.10;99.90;;;;;;5016360;28;20446;-72
2022/12/31 00:27:55;;;;;;;0.80;0.80;;;12.20;99.90;;;;;;5029534;28;20224;-72
2022/12/31 00:30:20;;;;;;;1.60;0.80;;;12.20;99.90;;;;;;5024232;28;20710;-71
2022/12/31 00:32:46;;;;;;;0.83;0.83;;;12.20;99.90;;;;;;5033319;28;20212;-72
2022/12/31 00:35:12;;;;;;;0.70;0.63;;;12.30;99.90;;;;;;5016754;28;20287;-72
2022/12/31 00:37:38;;;;;;;0.87;0.87;;;12.30;99.90;;;;;;5032479;28;20227;-72
2022/12/31 00:40:04;;;;;;;0.73;0.73;;;12.40;99.90;;;;;;5031724;28;20616;-72
2022/12/31 00:42:30;;;;;;;1.47;0.93;;;12.30;99.90;;;;;;5030845;28;20224;-71
2022/12/31 00:44:55;;;;;;;0.77;0.70;;;12.40;99.90;;;;;;5021618;28;20454;-72
2022/12/31 00:47:23;;;;;;;0.60;0.60;;;12.30;99.90;;;;;;5050125;28;20302;-72
2022/12/31 00:49:49;;;;;;;0.70;0.70;;;12.40;99.90;;;;;;5032573;28;20691;-72
2022/12/31 00:52:15;;;;;;;2.33;0.80;;;12.40;99.90;;;;;;5031854;28;20454;-72
2022/12/31 00:54:41;;;;;;;0.70;0.60;;;12.50;99.90;;;;;;5015062;28;20216;-72
2022/12/31 00:57:07;;;;;;;0.60;0.60;;;12.40;99.90;;;;;;5032578;28;20455;-71
2022/12/31 00:59:32;;;;;;;1.07;0.90;;;12.40;99.90;;;;;;5015670;28;20691;-72
2022/12/31 01:01:58;;;;;;;0.70;0.70;;;12.60;99.90;;;;;;5015252;28;20205;-71
2022/12/31 01:04:24;;;;;;;0.73;0.73;;;12.60;99.90;;;;;;5015661;28;20557;-72
2022/12/31 01:06:49;;;;;;;0.70;0.60;;;12.50;99.90;;;;;;5030277;28;20216;-72
2022/12/31 01:09:16;;;;;;;0.80;0.80;;;12.50;99.90;;;;;;5031814;28;20231;-72
2022/12/31 01:11:42;;;;;;;0.77;0.77;;;12.50;99.90;;;;;;5032362;28;20215;-72
2022/12/31 01:14:19;;;;;;;0.80;0.80;;;12.50;99.90;;;;;;5015789;28;20800;-72
2022/12/31 01:16:48;;;;;;;1.40;0.90;;;12.50;99.90;;;;;;5015470;28;20434;-71
2022/12/31 01:19:19;;;;;;;0.80;0.80;;;12.50;99.90;;;;;;5012168;28;20455;-72
2022/12/31 01:21:47;;;;;;;1.00;1.00;;;12.50;99.90;;;;;;5013247;28;20502;-72
2022/12/31 01:24:13;;;;;;;1.07;0.80;;;12.50;99.90;;;;;;5014402;28;20436;-72
2022/12/31 01:26:40;;;;;;;1.07;0.97;;;12.50;99.90;;;;;;5019482;28;20973;-73
2022/12/31 01:29:06;;;;;;;1.00;1.00;;;12.60;99.90;;;;;;5015642;28;20446;-72
2022/12/31 01:31:33;;;;;;;1.00;1.00;;;12.70;99.90;;;;;;5013499;28;20447;-72
2022/12/31 01:33:59;;;;;;;1.17;0.90;;;12.70;99.90;;;;;;5020317;28;20470;-72
2022/12/31 01:36:28;;;;;;;1.00;1.00;;;12.70;99.90;;;;;;5012419;28;20462;-73
2022/12/31 01:38:55;;;;;;;1.43;1.20;;;12.70;99.90;;;;;;5028589;28;20451;-72
2022/12/31 01:41:28;;;;;;;1.30;1.20;;;12.70;99.90;;;;;;5031161;28;20526;-72
2022/12/31 01:44:21;;;;;;;1.60;1.43;;;12.70;99.90;;;;;;5027626;28;20473;-72
2022/12/31 01:46:52;;;;;;;2.20;1.17;;;12.80;99.90;;;;;;5002446;28;20466;-72
2022/12/31 01:49:21;;;;;;;1.33;1.23;;;12.90;99.90;;;;;;5021247;28;20987;-72
2022/12/31 01:51:55;;;;;;;1.63;1.10;;;12.90;99.90;;;;;;5032165;28;20474;-72
2022/12/31 01:54:23;;;;;;;1.13;0.80;;;12.90;99.90;;;;;;5031627;28;20474;-71
2022/12/31 01:56:51;;;;;;;1.30;1.20;;;13.00;99.90;;;;;;5033773;28;20507;-73
2022/12/31 01:59:21;;;;;;;1.50;1.40;;;13.00;99.90;;;;;;5031070;28;20450;-73
2022/12/31 02:01:51;;;;;;;2.00;1.10;;;12.90;99.90;;;;;;5019940;28;20438;-70
2022/12/31 02:04:20;;;;;;;1.53;1.20;;;13.00;99.90;;;;;;5017051;28;20456;-72
2022/12/31 02:07:06;;;;;;;0.90;0.90;;;13.00;99.90;;;;;;5032139;28;20438;-71
2022/12/31 02:09:33;;;;;;;1.40;1.30;;;13.00;99.90;;;;;;5018880;28;20856;-72
2022/12/31 02:11:59;;;;;;;1.00;1.00;;;13.10;99.90;;;;;;5030103;28;20493;-72
2022/12/31 02:14:28;;;;;;;1.40;1.30;;;13.10;99.90;;;;;;5048859;28;20814;-72
2022/12/31 02:17:12;;;;;;;1.47;1.37;;;13.10;99.90;;;;;;5031893;28;20220;-72
2022/12/31 02:19:56;;;;;;;1.87;1.20;;;13.10;99.90;;;;;;5014757;28;20458;-72
2022/12/31 02:22:45;;;;;;;1.10;1.10;;;13.10;99.90;;;;;;5011584;28;20447;-73
2022/12/31 02:25:28;;;;;;;1.20;1.13;;;13.10;99.90;;;;;;5031580;28;20450;-73
2022/12/31 02:28:27;;;;;;;2.10;1.50;;;13.10;99.90;;;;;;5029346;28;20519;-73
2022/12/31 02:31:03;;;;;;;1.30;1.20;;;13.20;99.90;;;;;;5022819;28;20533;-73
2022/12/31 02:33:38;;;;;;;1.40;1.30;;;13.10;99.90;;;;;;5012010;28;20439;-73
2022/12/31 02:36:11;;;;;;;2.20;1.60;;;13.20;99.90;;;;;;5012958;28;20496;-73
2022/12/31 02:38:41;;;;;;;1.67;1.57;;;13.20;99.90;;;;;;5030208;28;20466;-72
2022/12/31 02:41:48;;;;;;;1.67;1.53;;;13.20;99.90;;;;;;5015133;28;20471;-73
2022/12/31 02:44:20;;;;;;;1.93;1.57;;;13.20;99.90;;;;;;5050841;28;20955;-73
2022/12/31 02:47:19;;;;;;;1.73;1.63;;;13.10;99.90;;;;;;4999479;28;20955;-73
2022/12/31 02:49:44;;;;;;;2.00;1.67;;;13.00;99.90;;;;;;5021208;28;20457;-75
2022/12/31 02:52:51;;;;;;;2.37;1.70;;;13.10;99.90;;;;;;5034357;28;20464;-73
2022/12/31 02:55:33;;;;;;;1.60;1.50;;;13.10;99.90;;;;;;5018016;28;20215;-73
2022/12/31 02:58:13;;;;;;;2.40;2.10;;;13.10;99.90;;;;;;5034032;28;20542;-73
2022/12/31 03:03:35;;;;;;;5.03;2.40;;;13.00;99.90;;;;;;5053096;28;20978;-73
2022/12/31 03:06:06;;;;;;;2.53;1.90;;;13.00;99.90;;;;;;5019280;28;20493;-73
2022/12/31 03:09:11;;;;;;;1.70;1.60;;;13.00;99.90;;;;;;5034199;28;20462;-72
2022/12/31 03:12:44;;;;;;;2.77;2.00;;;13.00;99.90;;;;;;5047946;28;20454;-73
2022/12/31 03:14:03;;;;;;;1.80;1.70;;;13.00;99.90;;;;;;5034262;28;20461;-73
2022/12/31 03:16:29;;;;;;;1.77;1.67;;;13.00;99.90;;;;;;5034621;28;20442;-72
2022/12/31 03:27:07;;;;;;;2.20;1.87;;;13.10;99.90;;;;;;5051362;28;20466;-73
2022/12/31 03:29:33;;;;;;;7.87;1.63;;;13.10;99.90;;;;;;5034887;28;20466;-72
2022/12/31 03:31:59;;;;;;;3.23;1.83;;;13.10;99.90;;;;;;5052314;28;20369;-73
2022/12/31 03:34:25;;;;;;;2.67;1.87;;;13.10;99.90;;;;;;5034269;28;20576;-73
2022/12/31 03:36:50;;;;;;;4.40;1.80;;;13.10;99.90;;;;;;5014513;28;20243;-73
2022/12/31 03:39:17;;;;;;;1.57;1.47;;;13.10;99.90;;;;;;5014535;28;20269;-72
2022/12/31 03:41:43;;;;;;;1.43;1.33;;;13.10;99.90;;;;;;5009437;28;20513;-73
2022/12/31 03:44:08;;;;;;;1.90;1.80;;;13.00;99.90;;;;;;5034842;28;20223;-73
2022/12/31 03:46:34;;;;;;;1.80;1.70;;;13.10;99.90;;;;;;5034471;28;20216;-73
2022/12/31 03:48:59;;;;;;;1.90;1.73;;;13.10;99.90;;;;;;5032617;28;20254;-73
2022/12/31 03:51:25;;;;;;;1.73;1.60;;;13.10;99.90;;;;;;5028248;28;20297;-73
2022/12/31 03:53:51;;;;;;;1.90;1.60;;;13.10;99.90;;;;;;5034399;28;20212;-73
2022/12/31 03:56:17;;;;;;;1.97;1.77;;;13.20;99.90;;;;;;5016435;28;20458;-73
2022/12/31 03:58:43;;;;;;;1.87;1.77;;;13.10;99.90;;;;;;5039411;28;20234;-73
2022/12/31 04:01:08;;;;;;;1.93;1.83;;;13.10;99.90;;;;;;5025481;28;20220;-73
2022/12/31 04:03:34;;;;;;;2.67;2.13;;;13.20;99.90;;;;;;5031444;28;20242;-73
2022/12/31 04:05:59;;;;;;;1.90;1.70;;;13.20;99.90;;;;;;5017700;28;20714;-73
2022/12/31 04:08:25;;;;;;;2.07;1.87;;;13.10;99.90;;;;;;5030249;28;20598;-73
2022/12/31 04:10:51;;;;;;;2.80;1.87;;;13.10;99.90;;;;;;5034053;28;20222;-73
2022/12/31 04:13:16;;;;;;;1.73;1.63;;;13.20;99.90;;;;;;5033621;28;20610;-73
2022/12/31 04:15:42;;;;;;;2.63;2.43;;;13.20;99.90;;;;;;5016767;28;20299;-73
2022/12/31 04:18:08;;;;;;;2.27;1.87;;;13.20;99.90;;;;;;5033147;28;20236;-73
2022/12/31 04:20:33;;;;;;;2.40;2.20;;;13.30;99.90;;;;;;5008778;28;20223;-73
2022/12/31 04:22:59;;;;;;;1.90;1.70;;;13.30;99.90;;;;;;5031059;28;20273;-73
2022/12/31 04:25:25;;;;;;;1.80;1.70;;;13.20;99.90;;;;;;5032907;28;20277;-72
2022/12/31 04:27:50;;;;;;;1.50;1.40;;;13.30;99.90;;;;;;5031316;28;20234;-73
2022/12/31 04:30:16;;;;;;;2.60;1.90;;;13.40;99.90;;;;;;5032471;28;20220;-72
2022/12/31 04:32:42;;;;;;;1.97;1.87;;;13.40;99.90;;;;;;5033162;28;20204;-72
2022/12/31 04:35:08;;;;;;;2.73;1.97;;;13.50;99.90;;;;;;5015665;28;20248;-73
2022/12/31 04:37:34;;;;;;;2.40;1.70;;;13.50;99.90;;;;;;5029642;28;20232;-73
2022/12/31 04:40:00;;;;;;;2.00;1.50;;;13.50;99.90;;;;;;5011384;28;20452;-73
2022/12/31 04:42:26;;;;;;;3.77;2.10;;;13.50;99.90;;;;;;5016343;28;20223;-73
2022/12/31 04:44:51;;;;;;;5.27;1.87;;;13.60;99.90;;;;;;5031889;28;20464;-73
2022/12/31 04:47:17;;;;;;;2.53;2.33;;;13.60;99.90;;;;;;5032837;28;20678;-73
2022/12/31 04:49:43;;;;;;;2.07;1.27;;;13.60;99.90;;;;;;5033138;28;20211;-73
2022/12/31 04:52:08;;;;;;;1.50;1.40;;;13.60;99.90;;;;;;5042091;28;20298;-73
2022/12/31 04:54:37;;;;;;;2.27;1.27;;;13.60;99.90;;;;;;5025795;28;20699;-72
2022/12/31 04:57:03;;;;;;;2.33;1.50;;;13.70;99.90;;;;;;5016211;28;20208;-73
2022/12/31 04:59:29;;;;;;;1.67;1.57;;;13.70;99.90;;;;;;5032408;28;20545;-73
2022/12/31 05:01:54;;;;;;;1.57;1.47;;;13.70;99.90;;;;;;5033086;28;20216;-73
2022/12/31 05:04:20;;;;;;;1.53;1.43;;;13.80;99.90;;;;;;5028839;28;20685;-72
2022/12/31 05:06:45;;;;;;;1.67;1.57;;;13.80;99.90;;;;;;5029750;28;20219;-73
2022/12/31 05:09:11;;;;;;;2.03;1.77;;;13.80;99.90;;;;;;5032153;28;20220;-72
2022/12/31 05:11:38;;;;;;;1.77;1.67;;;13.80;99.90;;;;;;5032930;28;20208;-73
2022/12/31 05:14:03;;;;;;;1.43;1.33;;;13.80;99.90;;;;;;5032951;28;20212;-73
2022/12/31 05:16:29;;;;;;;2.40;1.40;;;13.90;99.90;;;;;;5031511;28;20503;-72
2022/12/31 05:18:55;;;;;;;4.00;1.80;;;13.90;99.90;;;;;;5032706;28;20603;-72
2022/12/31 05:21:21;;;;;;;1.80;1.70;;;13.90;99.90;;;;;;5032556;28;20265;-73
2022/12/31 05:23:48;;;;;;;1.80;1.20;;;13.90;99.90;;;;;;5031639;28;20265;-73
2022/12/31 05:26:14;;;;;;;2.20;1.63;;;13.90;99.90;;;;;;5017993;28;20591;-73
2022/12/31 05:28:40;;;;;;;1.67;1.53;;;13.90;99.90;;;;;;5015213;28;20450;-73
2022/12/31 05:31:06;;;;;;;2.40;1.40;;;13.90;99.90;;;;;;5012833;28;20991;-73
2022/12/31 05:33:32;;;;;;;2.40;1.60;;;13.90;99.90;;;;;;5029834;28;20303;-73
2022/12/31 05:35:58;;;;;;;1.50;1.30;;;13.90;99.90;;;;;;5016184;28;20573;-73
2022/12/31 05:38:24;;;;;;;1.73;1.40;;;13.90;99.90;;;;;;5047102;28;20732;-73
2022/12/31 05:41:04;;;;;;;1.90;1.47;;;14.00;99.90;;;;;;5052885;28;20246;-73
2022/12/31 05:43:30;;;;;;;1.70;1.60;;;13.90;99.90;;;;;;5034563;28;20465;-73
2022/12/31 05:46:00;;;;;;;1.50;1.40;;;14.00;99.90;;;;;;5031364;28;20469;-73
2022/12/31 05:48:25;;;;;;;1.80;1.70;;;14.00;99.90;;;;;;5049292;28;20455;-73
2022/12/31 05:50:51;;;;;;;1.50;1.37;;;14.00;99.90;;;;;;5031602;28;20560;-73
2022/12/31 05:53:17;;;;;;;1.87;1.50;;;13.90;99.90;;;;;;5031279;28;20220;-73
2022/12/31 05:55:45;;;;;;;1.60;1.50;;;13.90;99.90;;;;;;5015546;28;20620;-73
2022/12/31 05:58:11;;;;;;;2.83;1.70;;;14.00;99.90;;;;;;5024901;28;20231;-73
2022/12/31 06:00:36;;;;;;;1.40;1.30;;;14.00;99.90;;;;;;5015234;28;20443;-72
2022/12/31 06:03:02;;;;;;;1.43;1.30;;;14.00;99.90;;;;;;5015619;28;20219;-72
2022/12/31 06:05:28;;;;;;;2.00;1.90;;;14.00;99.90;;;;;;5031313;28;20329;-72
2022/12/31 06:07:53;;;;;;;1.60;1.50;;;14.00;99.90;;;;;;5007487;28;20726;-73
2022/12/31 06:10:19;;;;;;;1.23;1.13;;;14.00;99.90;;;;;;5025887;28;20223;-71
2022/12/31 06:12:45;;;;;;;2.30;1.70;;;14.10;99.90;;;;;;5031905;28;20219;-73
2022/12/31 06:15:10;;;;;;;2.00;1.53;;;14.10;99.90;;;;;;5032875;28;20307;-73
2022/12/31 06:17:36;;;;;;;1.57;1.37;;;14.10;99.90;;;;;;5015450;28;20266;-73
2022/12/31 06:20:02;;;;;;;2.77;1.53;;;14.10;99.90;;;;;;5014461;28;20243;-73
2022/12/31 06:22:28;;;;;;;2.70;1.37;;;14.10;99.90;;;;;;5014936;28;20227;-73
2022/12/31 06:24:53;;;;;;;1.13;1.10;;;14.10;99.90;;;;;;5023872;28;20459;-72
2022/12/31 06:27:19;;;;;;;1.37;1.27;;;14.10;99.90;;;;;;5028413;28;20246;-72
2022/12/31 06:29:46;;;;;;;1.63;1.30;;;14.10;99.90;;;;;;5013825;28;20212;-73
2022/12/31 06:32:12;;;;;;;3.23;1.87;;;14.20;99.90;;;;;;5023991;28;20571;-73
2022/12/31 06:34:37;;;;;;;1.43;1.33;;;14.20;99.90;;;;;;5021104;28;20435;-73
2022/12/31 06:37:03;;;;;;;1.70;1.60;;;14.20;99.90;;;;;;5031302;28;20767;-73
2022/12/31 06:39:29;;;;;;;1.47;1.37;;;14.20;99.90;;;;;;5031154;28;20208;-73
2022/12/31 06:41:54;;;;;;;2.00;1.63;;;14.30;99.90;;;;;;5031715;28;20562;-73
2022/12/31 06:44:21;;;;;;;2.10;1.30;;;14.20;99.90;;;;;;5008958;28;20281;-70
2022/12/31 06:46:48;;;;;;;1.37;1.33;;;14.20;99.90;;;;;;5025933;28;20224;-73
2022/12/31 06:49:15;;;;;;;1.23;1.20;;;14.20;99.90;;;;;;5013314;28;20611;-73
2022/12/31 06:51:41;;;;;;;2.17;1.97;;;14.20;99.90;;;;;;5021939;28;20534;-73
2022/12/31 06:54:07;;;;;;;1.27;1.17;;;14.20;99.90;;;;;;5031371;28;20254;-73
2022/12/31 06:56:32;;;;;;;1.40;1.30;;;14.10;99.90;;;;;;5031251;28;20443;-73
2022/12/31 06:58:58;;;;;;;1.53;1.30;;;14.10;99.90;;;;;;5031129;28;20715;-73
2022/12/31 07:01:43;;;;;;;2.97;1.50;;;14.20;99.90;;;;;;5014015;28;20696;-73
2022/12/31 07:04:29;;;;;;;2.40;1.17;;;14.10;99.90;;;;;;5030837;28;20483;-73
2022/12/31 07:06:58;;;;;;;1.57;1.47;;;14.00;99.90;;;;;;5031557;28;20836;-73
2022/12/31 07:09:36;;;;;;;1.50;1.40;;;14.00;99.90;;;;;;5030117;28;20485;-72
2022/12/31 07:12:32;;;;;;;1.20;1.10;;;14.00;99.90;;;;;;5031444;28;20473;-73
2022/12/31 07:15:04;;;;;;;2.20;1.40;;;14.00;99.90;;;;;;5031915;28;20466;-73
2022/12/31 07:18:10;;;;;;;1.60;1.50;;;14.00;99.90;;;;;;5029968;28;20455;-72
2022/12/31 07:20:36;;;;;;;2.67;1.60;;;14.00;99.90;;;;;;5044236;28;20482;-73
2022/12/31 07:23:02;;;;;;;1.40;1.30;;;13.90;99.90;;;;;;5024437;28;20498;-73
2022/12/31 07:25:28;;;;;;;3.13;1.40;;;13.90;99.90;;;;;;5030578;28;20270;-73
2022/12/31 07:28:10;;;;;;;1.90;1.80;;;13.90;99.90;;;;;;5027052;28;20223;-74
2022/12/31 07:31:01;;;;;;;2.80;2.00;;;13.90;99.90;;;;;;5032277;28;20454;-73
2022/12/31 07:33:37;;;;;;;1.60;1.43;;;13.90;99.90;;;;;;5029450;28;20458;-73
2022/12/31 07:36:18;;;;;;;1.70;1.50;;;13.90;99.90;;;;;;5034496;28;20824;-73
2022/12/31 07:38:51;;;;;;;6.63;1.80;;;13.90;99.90;;;;;;5031542;28;20488;-73
2022/12/31 07:41:41;;;;;;;1.67;1.37;;;13.80;99.90;;;;;;5032722;28;20454;-72
2022/12/31 07:44:08;;;;;;;2.23;2.03;;;13.80;99.90;;;;;;5031886;28;20561;-74
2022/12/31 07:46:59;;;;;;;1.93;1.73;;;13.80;99.90;;;;;;5034773;28;21005;-73
2022/12/31 07:49:28;;;;;;;2.00;1.80;;;13.80;99.90;;;;;;5033953;28;20247;-73
2022/12/31 07:51:55;;;;;;;2.23;2.03;;;13.80;99.90;;;;;;5026192;28;20462;-73
2022/12/31 07:54:21;;;;;;;2.20;2.00;;;13.80;99.90;;;;;;5024212;28;20474;-72
2022/12/31 07:56:48;;;;;;;2.00;1.90;;;13.80;99.90;;;;;;5015640;28;20451;-73
2022/12/31 07:59:16;;;;;;;3.30;1.90;;;13.80;99.90;;;;;;5015152;28;20460;-72
2022/12/31 08:01:47;;;;;;;2.47;1.70;;;13.80;99.90;;;;;;5034113;28;20482;-73
2022/12/31 08:04:40;;;;;;;3.40;2.37;;;13.80;99.90;;;;;;5017496;28;20451;-73
2022/12/31 08:07:08;;;;;;;2.73;2.10;;;13.80;99.90;;;;;;5033755;28;20462;-73
2022/12/31 08:09:52;;;;;;;2.30;1.90;;;13.80;99.90;;;;;;5032990;28;20482;-72
2022/12/31 08:12:20;;;;;;;1.83;1.73;;;13.80;99.90;;;;;;5025869;28;20446;-72
2022/12/31 08:14:47;;;;;;;3.50;2.30;;;13.80;99.90;;;;;;5032610;28;20458;-73
2022/12/31 08:17:15;;;;;;;2.40;2.20;;;13.80;99.90;;;;;;5046476;28;20454;-73
2022/12/31 08:19:41;;;;;;;2.70;1.83;;;13.80;99.90;;;;;;5033263;28;20455;-73
2022/12/31 08:22:13;;;;;;;1.93;1.77;;;13.80;99.90;;;;;;5032202;28;20546;-73
2022/12/31 08:25:12;;;;;;;3.30;2.13;;;13.80;99.90;;;;;;5014552;28;20508;-73
2022/12/31 08:27:56;;;;;;;3.20;2.47;;;13.70;99.90;;;;;;5049586;28;20458;-72
2022/12/31 08:30:27;;;;;;;2.73;2.53;;;13.70;99.90;;;;;;5023890;28;20451;-73
2022/12/31 08:33:20;;;;;;;2.20;2.00;;;13.70;99.90;;;;;;5032709;28;20469;-73
2022/12/31 08:36:05;;;;;;;4.23;2.00;;;13.70;99.90;;;;;;5033238;28;20470;-72
2022/12/31 08:38:49;;;;;;;2.13;1.97;;;13.70;99.90;;;;;;5044920;28;20963;-72
2022/12/31 08:41:29;;;;;;;3.37;1.80;;;13.70;99.90;;;;;;5046662;28;20458;-73
2022/12/31 08:44:01;;;;;;;1.90;1.80;;;13.70;99.90;;;;;;5033660;28;20538;-73
2022/12/31 08:46:26;;;;;;;2.50;2.30;;;13.70;99.90;;;;;;5023517;28;20496;-72
2022/12/31 08:48:52;;;;;;;2.50;2.20;;;13.70;99.90;;;;;;5025446;28;20874;-72
2022/12/31 08:51:20;;;;;;;2.70;2.13;;;13.70;99.90;;;;;;5018812;28;20250;-71
2022/12/31 08:53:47;;;;;;;3.10;2.03;;;13.70;99.90;;;;;;5017377;28;20226;-72
2022/12/31 08:56:26;;;;;;;2.30;2.10;;;13.70;99.90;;;;;;5023398;28;20955;-72
2022/12/31 08:59:04;;;;;;;3.17;2.00;;;13.70;99.90;;;;;;5031518;28;20512;-72
2022/12/31 09:01:44;;;;;;;3.80;2.17;;;13.70;99.90;;;;;;5019819;28;20474;-72
2022/12/31 09:04:28;;;;;;;5.10;2.17;;;13.70;99.90;;;;;;5046790;28;21044;-72
2022/12/31 09:07:02;;;;;;;3.17;2.03;;;13.70;99.90;;;;;;5016090;28;20985;-72
2022/12/31 09:09:39;;;;;;;3.83;2.93;;;13.70;99.90;;;;;;5015008;28;20458;-72
2022/12/31 09:12:21;;;;;;;2.90;2.60;;;13.70;99.90;;;;;;5032582;28;20466;-72
2022/12/31 09:14:54;;;;;;;2.50;2.30;;;13.70;99.90;;;;;;5032125;28;20454;-72
2022/12/31 09:17:43;;;;;;;2.03;1.70;;;13.70;99.90;;;;;;5015454;28;20459;-74
2022/12/31 09:20:21;;;;;;;2.20;2.00;;;13.70;99.90;;;;;;5030916;28;20450;-73
2022/12/31 09:22:48;;;;;;;2.87;2.00;;;13.70;99.90;;;;;;5032006;28;20442;-73
2022/12/31 09:25:16;;;;;;;2.20;2.00;;;13.70;99.90;;;;;;5030081;28;20489;-73
2022/12/31 09:27:56;;;;;;;2.77;1.90;;;13.70;99.90;;;;;;5030725;28;20507;-72
2022/12/31 09:30:35;;;;;;;2.00;1.83;;;13.80;99.90;;;;;;5035704;28;20458;-75
2022/12/31 09:33:27;;;;;;;2.97;2.50;;;13.70;99.90;;;;;;5005777;28;20499;-73
2022/12/31 09:36:26;;;;;;;2.00;1.73;;;13.80;99.90;;;;;;5043142;28;20466;-73
2022/12/31 09:39:19;;;;;;;4.07;1.97;;;13.80;99.90;;;;;;5021440;28;20915;-72
2022/12/31 09:42:11;;;;;;;4.37;2.07;;;13.80;99.90;;;;;;5012337;28;21026;-69
2022/12/31 09:45:09;;;;;;;1.93;1.70;;;13.80;99.90;;;;;;5016004;28;20443;-72
2022/12/31 09:48:13;;;;;;;3.10;1.80;;;13.80;99.90;;;;;;5025357;28;20451;-72
2022/12/31 09:51:03;;;;;;;6.00;2.50;;;13.80;99.90;;;;;;5005637;28;20454;-72
2022/12/31 09:53:32;;;;;;;2.87;2.67;;;13.80;99.90;;;;;;5027188;28;20454;-72
2022/12/31 09:56:26;;;;;;;7.73;3.13;;;13.80;99.90;;;;;;5030735;28;20454;-72
2022/12/31 09:59:04;;;;;;;3.73;3.17;;;13.80;99.90;;;;;;5019037;28;20470;-73
2022/12/31 10:01:29;;;;;;;6.77;3.47;;;13.90;99.90;;;;;;5034228;28;20438;-72
2022/12/31 10:04:10;;;;;;;3.40;3.20;;;13.90;99.90;;;;;;5032162;28;20462;-73
2022/12/31 10:07:00;;;;;;;2.80;2.60;;;13.90;99.90;;;;;;5002478;28;20216;-72
2022/12/31 10:09:46;;;;;;;3.50;2.77;;;14.00;99.90;;;;;;5016948;28;20476;-72
2022/12/31 10:12:26;;;;;;;3.40;2.73;;;14.00;99.90;;;;;;5020121;28;20958;-73
2022/12/31 10:14:55;;;;;;;5.50;2.80;;;14.00;99.90;;;;;;5029071;28;20947;-72
2022/12/31 10:17:33;;;;;;;2.53;2.40;;;14.10;99.90;;;;;;5014551;28;20482;-72
2022/12/31 10:20:17;;;;;;;5.73;3.40;;;14.10;99.90;;;;;;5020312;28;20485;-73
2022/12/31 10:22:45;;;;;;;13.20;9.27;;;14.10;99.90;;;;;;5015927;28;20446;-72
2022/12/31 10:25:33;;;;;;;25.83;18.63;;;14.20;99.90;;;;;;5029596;28;20482;-72
2022/12/31 10:28:27;;;;;;;18.33;13.30;;;14.20;99.90;;;;;;5028895;28;20462;-73
2022/12/31 10:31:18;;;;;;;9.03;7.90;;;14.20;99.90;;;;;;5013301;28;20446;-72
2022/12/31 10:33:50;;;;;;;7.57;6.77;;;14.20;99.90;;;;;;5025713;28;20453;-73
2022/12/31 10:36:41;;;;;;;7.00;6.40;;;14.30;99.90;;;;;;5030559;28;20461;-72
2022/12/31 10:39:26;;;;;;;5.70;5.20;;;14.30;99.90;;;;;;5030668;28;20482;-72
2022/12/31 10:42:10;;;;;;;3.00;2.57;;;14.40;99.90;;;;;;5011731;28;20520;-73
2022/12/31 10:44:54;;;;;;;3.20;2.90;;;14.40;99.90;;;;;;5031229;28;20478;-73
2022/12/31 10:47:41;;;;;;;3.43;2.80;;;14.50;99.90;;;;;;5016428;28;20537;-72
2022/12/31 10:50:29;;;;;;;3.90;2.10;;;14.60;99.90;;;;;;5032345;28;20454;-72
2022/12/31 10:53:19;;;;;;;2.67;2.47;;;14.60;99.90;;;;;;5028187;28;20451;-73
2022/12/31 10:56:06;;;;;;;4.60;2.70;;;14.70;99.90;;;;;;5027085;28;20454;-72
2022/12/31 10:58:59;;;;;;;2.33;2.13;;;14.70;99.90;;;;;;5028880;28;20567;-72
2022/12/31 11:01:53;;;;;;;2.90;2.60;;;14.70;99.90;;;;;;5023456;28;20524;-73
2022/12/31 11:04:37;;;;;;;5.17;2.47;;;14.80;99.90;;;;;;5000763;28;20458;-73
2022/12/31 11:07:21;;;;;;;2.67;2.30;;;14.80;99.90;;;;;;5034540;28;20466;-73
2022/12/31 11:10:05;;;;;;;2.40;2.20;;;14.80;99.90;;;;;;5034455;28;21090;-72
2022/12/31 11:12:49;;;;;;;4.67;2.43;;;14.80;99.90;;;;;;5017822;28;20453;-72
2022/12/31 11:15:41;;;;;;;2.83;2.20;;;14.80;99.90;;;;;;5027709;28;20465;-73
2022/12/31 11:18:18;;;;;;;6.10;2.90;;;14.90;99.90;;;;;;4999064;28;20471;-73
2022/12/31 11:20:54;;;;;;;2.20;2.00;;;14.90;99.90;;;;;;5037627;28;20934;-72
2022/12/31 11:23:34;;;;;;;3.40;2.40;;;14.90;99.90;;;;;;5031998;28;20975;-73
2022/12/31 11:26:36;;;;;;;2.63;2.37;;;14.90;99.90;;;;;;5018122;28;20453;-72
2022/12/31 11:29:13;;;;;;;7.90;5.60;;;14.90;99.90;;;;;;5019675;28;20475;-73
2022/12/31 11:31:57;;;;;;;10.27;7.57;;;14.90;99.90;;;;;;5021354;28;20462;-73
2022/12/31 11:34:47;;;;;;;12.03;9.70;;;14.90;99.90;;;;;;5033839;28;20512;-74
2022/12/31 11:37:31;;;;;;;6.53;4.97;;;15.00;99.90;;;;;;5031312;28;20451;-72
2022/12/31 11:40:02;;;;;;;3.27;2.97;;;15.00;99.90;;;;;;5032575;28;20503;-73
2022/12/31 11:42:54;;;;;;;3.33;2.20;;;15.10;99.90;;;;;;5033996;28;20446;-72
2022/12/31 11:45:39;;;;;;;4.53;2.53;;;15.10;99.90;;;;;;5034542;28;20450;-72
2022/12/31 11:48:23;;;;;;;2.60;2.40;;;15.00;99.90;;;;;;5019583;28;20464;-72
2022/12/31 11:51:14;;;;;;;6.37;2.90;;;15.00;99.90;;;;;;5047873;28;20454;-72
2022/12/31 11:54:23;;;;;;;2.00;1.90;;;15.10;99.90;;;;;;5018114;28;20553;-72
2022/12/31 11:57:04;;;;;;;4.00;2.40;;;15.10;99.90;;;;;;5033382;28;20432;-72
2022/12/31 11:59:30;;;;;;;2.07;1.90;;;15.10;99.90;;;;;;5028963;28;20511;-73
2022/12/31 12:02:30;;;;;;;2.20;1.90;;;15.00;99.90;;;;;;5016747;28;20990;-73
2022/12/31 12:04:59;;;;;;;2.73;2.20;;;15.00;99.90;;;;;;5025411;28;20531;-72
2022/12/31 12:07:25;;;;;;;4.37;2.37;;;15.00;99.90;;;;;;5033796;28;20892;-73
2022/12/31 12:09:54;;;;;;;3.90;2.13;;;15.00;99.90;;;;;;5031205;28;20451;-73
2022/12/31 12:12:20;;;;;;;4.57;2.07;;;15.00;99.90;;;;;;5032943;28;20516;-72
2022/12/31 12:14:51;;;;;;;2.50;2.27;;;15.00;99.90;;;;;;5019161;28;20446;-73
2022/12/31 12:17:31;;;;;;;2.50;2.20;;;15.10;99.90;;;;;;5030308;28;20459;-72
2022/12/31 12:20:12;;;;;;;4.10;2.30;;;15.10;99.90;;;;;;5049730;28;20454;-72
2022/12/31 12:22:48;;;;;;;1.90;1.80;;;15.10;99.90;;;;;;5029915;28;20495;-73
2022/12/31 12:25:21;;;;;;;2.50;1.97;;;15.10;99.90;;;;;;5028115;28;20449;-73
2022/12/31 12:27:47;;;;;;;34.43;19.47;;;15.20;99.90;;;;;;5032488;28;20463;-72
2022/12/31 12:30:26;;;;;;;28.20;18.50;;;15.20;99.90;;;;;;5032768;28;20455;-73
2022/12/31 12:32:54;;;;;;;17.60;11.80;;;15.20;99.90;;;;;;5033672;28;20458;-73
2022/12/31 12:35:27;;;;;;;23.27;14.13;;;15.30;99.90;;;;;;5029986;28;20470;-72
2022/12/31 12:38:02;;;;;;;108.90;53.80;;;15.20;99.90;;;;;;5031933;28;20469;-72
2022/12/31 12:40:29;;;;;;;69.13;41.17;;;15.20;99.90;;;;;;5033381;28;20457;-73
2022/12/31 12:42:55;;;;;;;24.67;17.60;;;15.20;99.90;;;;;;5033455;28;20450;-73
2022/12/31 12:45:36;;;;;;;11.43;9.97;;;15.20;99.90;;;;;;5014162;28;20542;-72
2022/12/31 12:48:12;;;;;;;7.63;6.90;;;15.20;99.90;;;;;;5002598;28;21014;-73
2022/12/31 12:50:42;;;;;;;4.43;4.03;;;15.20;99.90;;;;;;5028082;28;20457;-73
2022/12/31 12:53:19;;;;;;;2.33;2.10;;;15.20;99.90;;;;;;5032992;28;20458;-73
2022/12/31 12:56:03;;;;;;;5.53;2.90;;;15.30;99.90;;;;;;5013274;28;20454;-72
2022/12/31 12:58:39;;;;;;;5.37;4.87;;;15.30;99.90;;;;;;5014689;28;20531;-73
2022/12/31 13:01:13;;;;;;;4.57;4.17;;;15.40;99.90;;;;;;5029029;28;20442;-72
2022/12/31 13:03:54;;;;;;;3.37;3.07;;;15.40;99.90;;;;;;5009730;28;20838;-72
2022/12/31 13:06:22;;;;;;;3.20;2.33;;;15.30;99.90;;;;;;5026147;28;20450;-72
2022/12/31 13:09:07;;;;;;;2.87;2.67;;;15.40;99.90;;;;;;5021946;28;20463;-73
2022/12/31 13:11:48;;;;;;;5.00;2.57;;;15.40;99.90;;;;;;5032046;28;20446;-72
2022/12/31 13:14:19;;;;;;;2.27;1.60;;;15.40;99.90;;;;;;5045683;28;20481;-73
2022/12/31 13:16:54;;;;;;;2.20;1.67;;;15.50;99.90;;;;;;5030068;28;20448;-72
2022/12/31 13:19:41;;;;;;;2.13;1.80;;;15.40;99.90;;;;;;5032346;28;20462;-72
2022/12/31 13:22:25;;;;;;;2.67;2.30;;;15.40;99.90;;;;;;5043221;28;20453;-71
2022/12/31 13:25:10;;;;;;;3.33;2.70;;;15.40;99.90;;;;;;5032179;28;20454;-72
2022/12/31 13:27:46;;;;;;;2.13;1.93;;;15.50;99.90;;;;;;5028750;28;20447;-72
2022/12/31 13:30:37;;;;;;;2.17;1.97;;;15.50;99.90;;;;;;5015111;28;20450;-74